Time;durP1;ratioP1;P1;durP2;ratioP2;P2;SDS_P1;SDS_P2;PMS_P1;PMS_P2;Temp;Humidity;BMP_temperature;BMP_pressure;BME280_temperature;BME280_humidity;BME280_pressure;Samples;Min_cycle;Max_cycle;Signal;HPM_P1;HPM_P2
2023/12/07 00:01:19;;;;;;;146.35;68.40;;;-1.00;99.90;;;;;;5060193;28;20056;-53
2023/12/07 00:03:44;;;;;;;149.10;65.95;;;-1.00;99.90;;;;;;5059007;28;20642;-60
2023/12/07 00:06:10;;;;;;;160.32;66.90;;;-1.00;99.90;;;;;;5063811;28;20043;-53
2023/12/07 00:08:36;;;;;;;154.93;68.82;;;-1.00;99.90;;;;;;5065106;28;20036;-46
2023/12/07 00:11:01;;;;;;;161.93;70.32;;;-1.00;99.90;;;;;;5063426;28;20050;-55
2023/12/07 00:13:27;;;;;;;150.48;68.22;;;-1.00;99.90;;;;;;5059771;28;20024;-53
2023/12/07 00:15:53;;;;;;;156.57;67.07;;;-1.00;99.90;;;;;;5062747;28;20024;-49
2023/12/07 00:18:19;;;;;;;157.18;69.13;;;-1.10;99.90;;;;;;5062790;28;20601;-53
2023/12/07 00:20:45;;;;;;;152.07;67.77;;;-1.10;99.90;;;;;;5059803;28;20024;-53
2023/12/07 00:23:11;;;;;;;152.43;70.88;;;-1.00;99.90;;;;;;5054926;28;20105;-52
2023/12/07 00:25:36;;;;;;;158.45;70.28;;;-0.90;99.90;;;;;;5059779;28;20027;-51
2023/12/07 00:28:03;;;;;;;162.52;71.97;;;-0.80;99.90;;;;;;5060178;28;20035;-51
2023/12/07 00:30:28;;;;;;;164.70;74.07;;;-0.90;99.90;;;;;;5059570;28;20080;-52
2023/12/07 00:32:54;;;;;;;155.80;71.30;;;-0.80;99.90;;;;;;5057522;28;20032;-51
2023/12/07 00:35:22;;;;;;;147.45;70.43;;;-0.90;99.90;;;;;;5061511;28;20032;-54
2023/12/07 00:37:48;;;;;;;155.57;70.63;;;-0.80;99.90;;;;;;5060642;28;20048;-53
2023/12/07 00:40:14;;;;;;;149.60;64.65;;;-0.80;99.90;;;;;;5060520;28;20085;-53
2023/12/07 00:42:39;;;;;;;152.48;65.20;;;-0.80;99.90;;;;;;5055504;28;20143;-56
2023/12/07 15:56:09;;;;;;;145.38;57.30;;;0.10;99.90;;;;;;5075674;27;20457;-49
2023/12/07 15:58:34;;;;;;;155.88;62.75;;;0.10;99.90;;;;;;5076638;28;20691;-54
2023/12/07 16:01:00;;;;;;;155.55;65.93;;;0.10;99.90;;;;;;5075456;28;20032;-51
2023/12/07 16:03:26;;;;;;;158.10;65.55;;;0.10;99.90;;;;;;5073323;28;20035;-53
2023/12/07 16:05:52;;;;;;;157.00;67.50;;;0.10;99.90;;;;;;5075565;28;20038;-58
2023/12/07 16:08:17;;;;;;;171.23;73.45;;;0.20;99.90;;;;;;5075694;28;20266;-55
2023/12/07 16:10:43;;;;;;;167.88;73.53;;;0.20;99.90;;;;;;5076430;28;20070;-52
2023/12/07 16:13:10;;;;;;;166.15;75.50;;;0.20;99.90;;;;;;5072688;28;20154;-47
2023/12/07 16:15:36;;;;;;;169.73;75.00;;;0.20;99.90;;;;;;5074805;28;20043;-50
2023/12/07 16:18:02;;;;;;;159.40;74.30;;;0.20;99.90;;;;;;5076031;28;20100;-54
2023/12/07 16:20:28;;;;;;;160.93;70.05;;;0.20;99.90;;;;;;5075504;28;22171;-49
2023/12/07 16:22:53;;;;;;;152.15;67.32;;;0.10;99.90;;;;;;5072491;28;20053;-54
2023/12/07 16:25:19;;;;;;;159.50;69.45;;;0.20;99.90;;;;;;5075448;28;20759;-50
2023/12/07 16:27:45;;;;;;;158.20;71.63;;;0.10;99.90;;;;;;5075323;28;20043;-52
2023/12/07 16:30:14;;;;;;;158.82;69.88;;;0.20;99.90;;;;;;5075708;28;20032;-51
2023/12/07 16:32:40;;;;;;;144.20;68.50;;;0.10;99.90;;;;;;5073548;28;20028;-52
2023/12/07 16:35:06;;;;;;;151.10;70.20;;;0.10;99.90;;;;;;5076323;28;20036;-50
2023/12/07 16:37:33;;;;;;;156.63;68.18;;;0.00;99.90;;;;;;5074880;28;20270;-47
2023/12/07 16:39:59;;;;;;;139.32;66.75;;;0.00;99.90;;;;;;5075911;28;20186;-50
2023/12/07 16:42:24;;;;;;;151.43;68.22;;;0.10;99.90;;;;;;5073685;28;20028;-49
2023/12/07 16:44:52;;;;;;;158.07;71.18;;;0.10;99.90;;;;;;5073063;28;20067;-50
2023/12/07 16:47:17;;;;;;;;;;;0.10;99.90;;;;;;5075258;28;20047;-51
2023/12/07 16:49:43;;;;;;;161.23;71.05;;;0.10;99.90;;;;;;5076084;28;19919;-49
2023/12/07 16:52:09;;;;;;;159.23;69.85;;;0.10;99.90;;;;;;5072541;28;20032;-58
2023/12/07 16:54:34;;;;;;;162.68;73.18;;;0.10;99.90;;;;;;5073417;28;20126;-52
2023/12/07 16:57:00;;;;;;;160.50;76.13;;;0.10;99.90;;;;;;5075412;28;20063;-55
2023/12/07 16:59:26;;;;;;;179.15;79.95;;;0.20;99.90;;;;;;5074963;28;20043;-49
2023/12/07 17:01:52;;;;;;;184.45;80.68;;;0.20;99.90;;;;;;5072788;28;20059;-52
2023/12/07 17:04:18;;;;;;;219.82;90.15;;;0.20;99.90;;;;;;5075952;28;20077;-53
2023/12/07 17:06:44;;;;;;;237.13;102.25;;;0.20;99.90;;;;;;5065764;28;20032;-52
2023/12/07 17:09:12;;;;;;;223.70;94.28;;;0.10;99.90;;;;;;5061853;28;20048;-53
2023/12/07 17:11:38;;;;;;;;;;;0.10;99.90;;;;;;5061332;28;20040;-59
2023/12/07 17:14:03;;;;;;;194.10;87.72;;;0.20;99.90;;;;;;5061886;28;20533;-50
2023/12/07 17:16:29;;;;;;;185.48;84.13;;;0.20;99.90;;;;;;5061919;28;20461;-51
2023/12/07 17:18:54;;;;;;;173.57;80.63;;;0.20;99.90;;;;;;5062554;28;20032;-50
2023/12/07 17:21:21;;;;;;;181.48;80.68;;;0.30;99.90;;;;;;5061490;28;20036;-49
2023/12/07 17:23:47;;;;;;;180.80;81.60;;;0.20;99.90;;;;;;5058778;28;20048;-50
2023/12/07 17:26:12;;;;;;;183.55;83.75;;;0.20;99.90;;;;;;5062868;28;20032;-54
2023/12/07 17:28:38;;;;;;;191.55;85.93;;;0.20;99.90;;;;;;5060845;28;20566;-52
2023/12/07 17:31:04;;;;;;;176.27;79.68;;;0.20;99.90;;;;;;5060809;28;20028;-48
2023/12/07 17:33:30;;;;;;;178.02;83.07;;;0.20;99.90;;;;;;5059093;28;20572;-50
2023/12/07 17:35:55;;;;;;;171.13;79.25;;;0.10;99.90;;;;;;5062661;28;20047;-52
2023/12/07 17:38:21;;;;;;;175.30;77.00;;;0.10;99.90;;;;;;5062160;28;20066;-54
2023/12/07 17:40:46;;;;;;;164.73;75.82;;;0.00;99.90;;;;;;5060252;28;20472;-51
2023/12/07 17:43:12;;;;;;;166.70;76.53;;;0.10;99.90;;;;;;5055305;28;20028;-49
2023/12/07 17:45:40;;;;;;;169.93;75.50;;;0.10;99.90;;;;;;5059405;28;20040;-51
2023/12/07 17:48:11;;;;;;;172.10;74.80;;;0.00;99.90;;;;;;5057683;28;20508;-49
2023/12/07 17:50:39;;;;;;;168.80;75.20;;;0.10;99.90;;;;;;5062739;28;20075;-59
2023/12/07 17:53:06;;;;;;;180.93;79.25;;;0.10;99.90;;;;;;5060382;28;20059;-49
2023/12/07 17:55:32;;;;;;;191.88;82.85;;;0.10;99.90;;;;;;5061228;28;20108;-54
2023/12/07 17:57:58;;;;;;;181.98;84.10;;;0.10;99.90;;;;;;5062649;28;20028;-50
2023/12/07 18:00:24;;;;;;;172.50;79.70;;;0.10;99.90;;;;;;5061401;28;20134;-54
2023/12/07 18:02:49;;;;;;;164.57;72.57;;;0.10;99.90;;;;;;5060247;28;20020;-47
2023/12/07 18:05:16;;;;;;;151.45;64.82;;;0.10;99.90;;;;;;5061907;28;20028;-49
2023/12/07 18:07:45;;;;;;;152.15;66.30;;;0.00;99.90;;;;;;5061462;28;20032;-48
2023/12/07 18:10:13;;;;;;;157.20;70.13;;;0.00;99.90;;;;;;5061996;28;20145;-46
2023/12/07 18:12:39;;;;;;;161.90;71.75;;;0.00;99.90;;;;;;5059872;28;20502;-50
2023/12/07 18:15:07;;;;;;;166.32;70.95;;;-0.10;99.90;;;;;;5060721;28;20036;-56
2023/12/07 18:17:33;;;;;;;165.73;71.65;;;-0.10;99.90;;;;;;5058859;28;20062;-53
2023/12/07 18:19:59;;;;;;;178.15;74.82;;;-0.10;99.90;;;;;;5060388;28;20036;-48
2023/12/07 18:22:25;;;;;;;184.63;76.57;;;0.00;99.90;;;;;;5058076;28;20123;-51
2023/12/07 18:24:51;;;;;;;207.27;87.28;;;0.00;99.90;;;;;;5059404;28;20063;-52
2023/12/07 18:27:17;;;;;;;204.57;91.40;;;0.00;99.90;;;;;;5060228;28;20143;-49
2023/12/07 18:29:43;;;;;;;196.07;89.93;;;0.00;99.90;;;;;;5059338;28;20888;-54
2023/12/07 18:32:11;;;;;;;198.23;87.70;;;0.00;99.90;;;;;;5057058;28;20490;-50
2023/12/07 18:34:40;;;;;;;197.48;89.63;;;0.00;99.90;;;;;;5058624;28;20565;-52
2023/12/07 18:37:07;;;;;;;197.52;86.07;;;0.10;99.90;;;;;;5059313;28;20031;-56
2023/12/07 18:39:33;;;;;;;201.50;91.55;;;0.10;99.90;;;;;;5059082;28;20035;-48
2023/12/07 18:41:58;;;;;;;206.02;89.68;;;0.10;99.90;;;;;;5057320;28;20424;-51
2023/12/07 18:44:24;;;;;;;215.13;91.90;;;0.00;99.90;;;;;;5059262;28;20058;-50
2023/12/07 18:46:50;;;;;;;223.32;92.43;;;0.00;99.90;;;;;;5060048;28;20036;-53
2023/12/07 18:49:15;;;;;;;224.43;93.75;;;0.00;99.90;;;;;;5059510;28;20170;-52
2023/12/07 18:51:41;;;;;;;212.63;92.32;;;0.00;99.90;;;;;;5056721;28;20097;-52
2023/12/07 18:54:07;;;;;;;221.13;97.10;;;0.10;99.90;;;;;;5059546;28;20050;-53
2023/12/07 18:56:32;;;;;;;238.27;101.20;;;0.00;99.90;;;;;;5059506;28;20032;-47
2023/12/07 18:58:58;;;;;;;219.65;96.93;;;0.00;99.90;;;;;;5058511;28;20185;-53
2023/12/07 19:01:31;;;;;;;231.25;98.47;;;-0.10;99.90;;;;;;5058282;28;20623;-50
2023/12/07 19:03:57;;;;;;;240.85;104.60;;;-0.10;99.90;;;;;;5059603;28;20035;-55
2023/12/07 19:06:23;;;;;;;233.32;103.40;;;-0.10;99.90;;;;;;5057733;28;20032;-54
2023/12/07 19:08:49;;;;;;;237.98;101.53;;;-0.10;99.90;;;;;;5058679;28;20032;-50
2023/12/07 19:11:14;;;;;;;237.88;101.85;;;-0.10;99.90;;;;;;5058622;28;20032;-54
2023/12/07 19:13:40;;;;;;;238.73;105.25;;;-0.20;99.90;;;;;;5056384;28;20100;-49
2023/12/07 19:16:07;;;;;;;241.45;99.78;;;-0.10;99.90;;;;;;5057124;28;20402;-50
2023/12/07 19:18:33;;;;;;;240.43;101.03;;;-0.10;99.90;;;;;;5058231;28;20127;-49
2023/12/07 19:20:59;;;;;;;231.13;99.85;;;-0.10;99.90;;;;;;5057111;28;20036;-52
2023/12/07 19:23:24;;;;;;;223.80;98.68;;;0.00;99.90;;;;;;5054483;28;20497;-52
2023/12/07 19:25:50;;;;;;;229.60;100.93;;;0.00;99.90;;;;;;5057293;28;20048;-50
2023/12/07 19:28:16;;;;;;;287.75;121.10;;;0.10;99.90;;;;;;5058724;28;20648;-52
2023/12/07 19:30:41;;;;;;;277.67;121.43;;;0.00;99.90;;;;;;5056969;28;20035;-49
2023/12/07 19:33:08;;;;;;;268.53;116.37;;;0.10;99.90;;;;;;5054349;28;21653;-52
2023/12/07 19:35:33;;;;;;;249.35;112.07;;;0.00;99.90;;;;;;5058286;28;20047;-51
2023/12/07 19:37:59;;;;;;;255.93;111.72;;;0.10;99.90;;;;;;5058819;28;20679;-51
2023/12/07 19:40:26;;;;;;;249.55;108.05;;;0.10;99.90;;;;;;5057678;28;20715;-56
2023/12/07 19:42:52;;;;;;;;;;;0.10;99.90;;;;;;5055951;28;20039;-49
2023/12/07 19:45:18;;;;;;;265.77;114.95;;;0.10;99.90;;;;;;5056653;28;19912;-49
2023/12/07 19:47:43;;;;;;;263.23;114.40;;;0.20;99.90;;;;;;5057840;28;20035;-46
2023/12/07 19:50:10;;;;;;;258.90;115.50;;;0.10;99.90;;;;;;5058304;28;20115;-54
2023/12/07 19:52:36;;;;;;;;;;;0.10;99.90;;;;;;5054945;28;20024;-52
2023/12/07 19:55:05;;;;;;;264.98;114.07;;;0.10;99.90;;;;;;5056664;28;19930;-50
2023/12/07 19:57:32;;;;;;;274.42;113.60;;;0.10;99.90;;;;;;5058539;28;21038;-50
2023/12/07 19:59:58;;;;;;;262.10;114.32;;;0.10;99.90;;;;;;5058161;28;20048;-49
2023/12/07 20:02:24;;;;;;;285.23;120.90;;;0.10;99.90;;;;;;5054131;28;20032;-49
2023/12/07 20:04:49;;;;;;;271.58;117.60;;;0.10;99.90;;;;;;5057757;28;20024;-55
2023/12/07 20:07:15;;;;;;;278.80;118.57;;;0.00;99.90;;;;;;5057127;28;20042;-51
2023/12/07 20:09:41;;;;;;;277.85;120.63;;;0.10;99.90;;;;;;5058673;28;20479;-53
2023/12/07 20:12:06;;;;;;;251.05;104.40;;;0.10;99.90;;;;;;5055179;28;20458;-52
2023/12/07 20:14:32;;;;;;;229.77;100.97;;;0.10;99.90;;;;;;5058693;28;20455;-51
2023/12/07 20:16:58;;;;;;;235.50;100.75;;;0.00;99.90;;;;;;5057220;28;20039;-53
2023/12/07 20:19:24;;;;;;;234.48;103.40;;;0.00;99.90;;;;;;5058073;28;20043;-51
2023/12/07 20:21:49;;;;;;;222.25;100.55;;;0.00;99.90;;;;;;5055519;28;20046;-53
2023/12/07 20:24:15;;;;;;;239.43;99.30;;;0.10;99.90;;;;;;5057338;28;20151;-55
2023/12/07 20:26:41;;;;;;;221.15;96.53;;;0.00;99.90;;;;;;5057418;28;20032;-49
2023/12/07 20:29:07;;;;;;;223.90;94.82;;;0.00;99.90;;;;;;5056394;28;20123;-49
2023/12/07 20:31:32;;;;;;;220.38;96.32;;;0.00;99.90;;;;;;5053752;28;20028;-51
2023/12/07 20:33:58;;;;;;;237.10;98.10;;;0.00;99.90;;;;;;5056381;28;20028;-50
2023/12/07 20:36:24;;;;;;;231.13;95.43;;;0.00;99.90;;;;;;5056865;28;20495;-51
2023/12/07 20:38:50;;;;;;;227.07;98.13;;;0.00;99.90;;;;;;5056732;28;20040;-49
2023/12/07 20:41:16;;;;;;;237.30;101.68;;;0.00;99.90;;;;;;5057352;28;20455;-50
2023/12/07 20:43:41;;;;;;;241.25;107.90;;;0.00;99.90;;;;;;5058555;28;20553;-54
2023/12/07 20:46:07;;;;;;;255.43;110.72;;;0.00;99.90;;;;;;5059312;28;20032;-50
2023/12/07 20:48:33;;;;;;;245.13;107.40;;;0.10;99.90;;;;;;5060695;28;20047;-53
2023/12/07 20:50:59;;;;;;;256.95;111.13;;;0.10;99.90;;;;;;5058484;28;20889;-47
2023/12/07 20:53:26;;;;;;;284.23;120.28;;;0.00;99.90;;;;;;5056705;28;20028;-48
2023/12/07 20:55:52;;;;;;;285.85;121.80;;;0.00;99.90;;;;;;5060627;28;21323;-48
2023/12/07 20:58:18;;;;;;;293.92;128.43;;;0.00;99.90;;;;;;5059876;28;20044;-51
2023/12/07 21:00:44;;;;;;;290.15;122.10;;;0.00;99.90;;;;;;5059874;28;20036;-53
2023/12/07 21:03:11;;;;;;;256.08;110.97;;;0.00;99.90;;;;;;5057560;28;20024;-50
2023/12/07 21:05:37;;;;;;;258.42;107.97;;;0.00;99.90;;;;;;5058884;28;20059;-50
2023/12/07 21:08:02;;;;;;;245.65;105.40;;;-0.10;99.90;;;;;;5061538;28;20550;-51
2023/12/07 21:10:28;;;;;;;243.48;106.45;;;-0.10;99.90;;;;;;5061107;28;20032;-48
2023/12/07 21:12:58;;;;;;;249.60;105.30;;;0.00;99.90;;;;;;5057507;28;20075;-50
2023/12/07 21:15:24;;;;;;;252.45;106.15;;;0.00;99.90;;;;;;5059097;28;20807;-51
2023/12/07 21:17:50;;;;;;;250.50;107.10;;;0.00;99.90;;;;;;5059893;28;20028;-50
2023/12/07 21:20:16;;;;;;;254.80;106.75;;;0.00;99.90;;;;;;5060054;28;20040;-47
2023/12/07 21:22:42;;;;;;;253.45;108.13;;;0.00;99.90;;;;;;5058966;28;20035;-52
2023/12/07 21:25:09;;;;;;;251.63;107.63;;;0.00;99.90;;;;;;5059509;28;20024;-50
2023/12/07 21:27:34;;;;;;;257.00;106.10;;;0.00;99.90;;;;;;5059718;28;20071;-49
2023/12/07 21:30:00;;;;;;;249.82;109.78;;;0.00;99.90;;;;;;5058707;28;20890;-56
2023/12/07 21:32:26;;;;;;;254.15;112.80;;;0.00;99.90;;;;;;5057531;28;20571;-56
2023/12/07 21:34:51;;;;;;;256.42;110.03;;;0.00;99.90;;;;;;5058876;28;20039;-51
2023/12/07 21:37:17;;;;;;;250.40;110.72;;;0.10;99.90;;;;;;5060682;28;20535;-49
2023/12/07 21:39:43;;;;;;;253.75;108.57;;;0.10;99.90;;;;;;5058383;28;20028;-51
2023/12/07 21:42:08;;;;;;;244.35;104.90;;;0.20;99.90;;;;;;5056826;28;20393;-55
2023/12/07 21:44:34;;;;;;;249.10;106.78;;;0.20;99.90;;;;;;5058837;28;20382;-49
2023/12/07 21:47:04;;;;;;;258.60;108.25;;;0.10;99.90;;;;;;5059201;28;20032;-53
2023/12/07 21:49:30;;;;;;;242.98;108.85;;;0.20;99.90;;;;;;5059545;28;20040;-47
2023/12/07 21:51:56;;;;;;;267.15;112.68;;;0.20;99.90;;;;;;5057574;28;20437;-48
2023/12/07 21:54:22;;;;;;;274.48;118.30;;;0.20;99.90;;;;;;5059497;28;20064;-49
2023/12/07 21:56:47;;;;;;;265.40;113.72;;;0.20;99.90;;;;;;5058578;28;20036;-49
2023/12/07 21:59:13;;;;;;;277.40;116.85;;;0.30;99.90;;;;;;5059824;28;20043;-51
2023/12/07 22:01:39;;;;;;;279.08;115.13;;;0.20;99.90;;;;;;5056440;28;20036;-50
2023/12/07 22:04:04;;;;;;;287.80;119.40;;;0.20;99.90;;;;;;5059224;28;20112;-52
2023/12/07 22:06:30;;;;;;;284.90;116.65;;;0.10;99.90;;;;;;5059566;28;21028;-52
2023/12/07 22:08:56;;;;;;;283.63;115.05;;;0.20;99.90;;;;;;5059285;28;20757;-50
2023/12/07 22:11:22;;;;;;;284.30;123.85;;;0.20;99.90;;;;;;5058767;28;20020;-55
2023/12/07 22:13:48;;;;;;;297.98;123.28;;;0.20;99.90;;;;;;5056884;28;20628;-48
2023/12/07 22:16:13;;;;;;;282.75;119.97;;;0.20;99.90;;;;;;5059034;28;20063;-50
2023/12/07 22:18:40;;;;;;;292.27;127.35;;;0.20;99.90;;;;;;5057926;28;20040;-48
2023/12/07 22:21:06;;;;;;;296.45;128.82;;;0.20;99.90;;;;;;5059540;28;20035;-48
2023/12/07 22:23:32;;;;;;;300.70;128.52;;;0.30;99.90;;;;;;5056174;28;20058;-51
2023/12/07 22:25:58;;;;;;;308.67;129.25;;;0.30;99.90;;;;;;5058472;28;20036;-50
2023/12/07 22:28:23;;;;;;;309.80;133.02;;;0.30;99.90;;;;;;5059248;28;20040;-55
2023/12/07 22:30:49;;;;;;;333.08;140.38;;;0.20;99.90;;;;;;5058794;28;20035;-50
2023/12/07 22:33:15;;;;;;;318.80;137.20;;;0.10;99.90;;;;;;5056595;28;20651;-57
2023/12/07 22:35:42;;;;;;;323.38;138.85;;;0.20;99.90;;;;;;5058920;28;20885;-51
2023/12/07 22:38:08;;;;;;;306.55;133.60;;;0.10;99.90;;;;;;5057429;28;20039;-49
2023/12/07 22:40:33;;;;;;;332.40;135.38;;;0.10;99.90;;;;;;5057582;28;20028;-49
2023/12/07 22:42:59;;;;;;;309.73;131.10;;;0.10;99.90;;;;;;5055230;28;20040;-54
2023/12/07 22:45:26;;;;;;;297.75;132.32;;;0.10;99.90;;;;;;5057106;28;20112;-48
2023/12/07 22:47:51;;;;;;;314.70;132.50;;;0.10;99.90;;;;;;5055792;28;20621;-52
2023/12/07 22:50:17;;;;;;;277.35;121.57;;;0.00;99.90;;;;;;5058582;28;20028;-46
2023/12/07 22:52:43;;;;;;;284.77;124.38;;;0.00;99.90;;;;;;5055154;28;20451;-50
2023/12/07 22:55:09;;;;;;;285.25;118.45;;;0.00;99.90;;;;;;5057260;28;20060;-51
2023/12/07 22:57:35;;;;;;;277.35;117.00;;;0.00;99.90;;;;;;5058007;28;20459;-49
2023/12/07 23:00:01;;;;;;;284.95;118.93;;;-0.10;99.90;;;;;;5057673;28;20040;-49
2023/12/07 23:02:26;;;;;;;279.50;114.68;;;0.10;99.90;;;;;;5055863;28;20981;-50
2023/12/07 23:04:52;;;;;;;281.70;116.15;;;-0.10;99.90;;;;;;5058303;28;20028;-51
2023/12/07 23:07:18;;;;;;;278.70;120.13;;;0.00;99.90;;;;;;5056901;28;20764;-53
2023/12/07 23:09:43;;;;;;;280.23;117.88;;;-0.10;99.90;;;;;;5058128;28;20031;-45
2023/12/07 23:12:09;;;;;;;269.88;117.22;;;0.00;99.90;;;;;;5056046;28;20035;-50
2023/12/07 23:14:34;;;;;;;275.02;117.65;;;0.10;99.90;;;;;;5057078;28;20043;-50
2023/12/07 23:17:01;;;;;;;276.53;117.17;;;0.00;99.90;;;;;;5058352;28;20031;-52
2023/12/07 23:19:26;;;;;;;257.80;112.97;;;-0.10;99.90;;;;;;5057140;28;20024;-53
2023/12/07 23:21:52;;;;;;;257.17;111.97;;;-0.10;99.90;;;;;;5054758;28;20035;-53
2023/12/07 23:24:18;;;;;;;269.15;116.82;;;0.00;99.90;;;;;;5056191;28;20537;-51
